Terminal Aerodrome Forecast
Issued by NWS Charleston, SC

Current Version | Previous Version | Text Only | Print | Product List | Glossary On
Versions: 1 2 3 4 5 6 7 8 9 10 11 12 13 14 15 16 17 18 19 20
000
FTUS42 KCHS 292326
TAFSAV
TAF
KSAV 292326Z 3000/3024 19003KT P6SM SKC
     FM301200 21008KT P6SM SCT060
     FM301430 24014G21KT P6SM BKN050
     FM302100 26011G16KT P6SM SCT050=

USA.gov is the U.S. government's official web portal to all federal, state and local government web resources and services.